sensor_id;sensor_type;location;lat;lon;timestamp;temperature;humidity
12115;DHT22;6121;49.810;6.418;2023-05-02T00:00:45;8.90;99.90
12115;DHT22;6121;49.810;6.418;2023-05-02T00:03:11;8.90;99.90
12115;DHT22;6121;49.810;6.418;2023-05-02T00:05:37;8.90;99.90
12115;DHT22;6121;49.810;6.418;2023-05-02T00:08:03;8.70;99.90
12115;DHT22;6121;49.810;6.418;2023-05-02T00:10:29;8.40;99.90
12115;DHT22;6121;49.810;6.418;2023-05-02T00:12:55;8.60;99.90
12115;DHT22;6121;49.810;6.418;2023-05-02T00:15:21;8.80;99.90
12115;DHT22;6121;49.810;6.418;2023-05-02T00:17:47;8.90;99.90
12115;DHT22;6121;49.810;6.418;2023-05-02T00:20:13;8.90;99.90
12115;DHT22;6121;49.810;6.418;2023-05-02T00:22:39;8.70;99.90
12115;DHT22;6121;49.810;6.418;2023-05-02T00:25:05;8.60;99.90
12115;DHT22;6121;49.810;6.418;2023-05-02T00:27:31;8.70;99.90
12115;DHT22;6121;49.810;6.418;2023-05-02T00:29:58;8.70;99.90
12115;DHT22;6121;49.810;6.418;2023-05-02T00:32:26;8.70;99.90
12115;DHT22;6121;49.810;6.418;2023-05-02T00:34:52;8.70;99.90
12115;DHT22;6121;49.810;6.418;2023-05-02T00:37:18;8.60;99.90
12115;DHT22;6121;49.810;6.418;2023-05-02T00:39:44;8.50;99.90
12115;DHT22;6121;49.810;6.418;2023-05-02T00:42:10;8.40;99.90
12115;DHT22;6121;49.810;6.418;2023-05-02T00:44:36;8.50;99.90
12115;DHT22;6121;49.810;6.418;2023-05-02T00:47:02;8.50;99.90
12115;DHT22;6121;49.810;6.418;2023-05-02T00:49:28;8.60;99.90
12115;DHT22;6121;49.810;6.418;2023-05-02T00:51:55;8.70;99.90
12115;DHT22;6121;49.810;6.418;2023-05-02T00:54:21;8.60;99.90
12115;DHT22;6121;49.810;6.418;2023-05-02T00:56:47;8.40;99.90
12115;DHT22;6121;49.810;6.418;2023-05-02T00:59:14;8.40;99.90
12115;DHT22;6121;49.810;6.418;2023-05-02T01:13:42;8.40;99.90
12115;DHT22;6121;49.810;6.418;2023-05-02T01:16:10;8.30;99.90
12115;DHT22;6121;49.810;6.418;2023-05-02T01:18:37;8.30;99.90
12115;DHT22;6121;49.810;6.418;2023-05-02T01:21:08;8.40;99.90
12115;DHT22;6121;49.810;6.418;2023-05-02T01:23:52;8.40;99.90
12115;DHT22;6121;49.810;6.418;2023-05-02T01:26:51;8.30;99.90
12115;DHT22;6121;49.810;6.418;2023-05-02T01:29:21;8.30;99.90
12115;DHT22;6121;49.810;6.418;2023-05-02T01:31:49;8.10;99.90
12115;DHT22;6121;49.810;6.418;2023-05-02T01:34:18;8.20;99.90
12115;DHT22;6121;49.810;6.418;2023-05-02T01:36:47;8.00;99.90
12115;DHT22;6121;49.810;6.418;2023-05-02T01:39:20;7.90;99.90
12115;DHT22;6121;49.810;6.418;2023-05-02T01:41:53;7.90;99.90
12115;DHT22;6121;49.810;6.418;2023-05-02T01:44:21;7.90;99.90
12115;DHT22;6121;49.810;6.418;2023-05-02T01:46:49;8.00;99.90
12115;DHT22;6121;49.810;6.418;2023-05-02T01:49:17;7.80;99.90
12115;DHT22;6121;49.810;6.418;2023-05-02T01:51:47;7.70;99.90
12115;DHT22;6121;49.810;6.418;2023-05-02T01:54:15;7.60;99.90
12115;DHT22;6121;49.810;6.418;2023-05-02T01:56:41;7.70;99.90
12115;DHT22;6121;49.810;6.418;2023-05-02T01:59:11;7.70;99.90
12115;DHT22;6121;49.810;6.418;2023-05-02T02:01:39;7.70;99.90
12115;DHT22;6121;49.810;6.418;2023-05-02T02:04:08;7.80;99.90
12115;DHT22;6121;49.810;6.418;2023-05-02T02:06:34;7.80;99.90
12115;DHT22;6121;49.810;6.418;2023-05-02T02:09:00;7.70;99.90
12115;DHT22;6121;49.810;6.418;2023-05-02T02:11:34;7.60;99.90
12115;DHT22;6121;49.810;6.418;2023-05-02T02:14:14;7.50;99.90
12115;DHT22;6121;49.810;6.418;2023-05-02T02:16:41;7.50;99.90
12115;DHT22;6121;49.810;6.418;2023-05-02T02:19:11;7.50;99.90
12115;DHT22;6121;49.810;6.418;2023-05-02T02:21:39;7.60;99.90
12115;DHT22;6121;49.810;6.418;2023-05-02T02:24:06;7.60;99.90
12115;DHT22;6121;49.810;6.418;2023-05-02T02:26:32;7.40;99.90
12115;DHT22;6121;49.810;6.418;2023-05-02T02:29:03;7.50;99.90
12115;DHT22;6121;49.810;6.418;2023-05-02T02:31:35;7.60;99.90
12115;DHT22;6121;49.810;6.418;2023-05-02T02:34:03;7.60;99.90
12115;DHT22;6121;49.810;6.418;2023-05-02T02:36:38;7.60;99.90
12115;DHT22;6121;49.810;6.418;2023-05-02T02:39:11;7.60;99.90
12115;DHT22;6121;49.810;6.418;2023-05-02T02:44:43;7.70;99.90
12115;DHT22;6121;49.810;6.418;2023-05-02T02:47:28;7.70;99.90
12115;DHT22;6121;49.810;6.418;2023-05-02T02:50:13;7.70;99.90
12115;DHT22;6121;49.810;6.418;2023-05-02T02:53:04;7.70;99.90
12115;DHT22;6121;49.810;6.418;2023-05-02T02:55:52;7.50;99.90
12115;DHT22;6121;49.810;6.418;2023-05-02T02:58:57;7.50;99.90
12115;DHT22;6121;49.810;6.418;2023-05-02T03:01:26;7.50;99.90
12115;DHT22;6121;49.810;6.418;2023-05-02T03:03:56;7.60;99.90
12115;DHT22;6121;49.810;6.418;2023-05-02T03:06:23;7.70;99.90
12115;DHT22;6121;49.810;6.418;2023-05-02T03:08:51;7.60;99.90
12115;DHT22;6121;49.810;6.418;2023-05-02T03:11:18;7.60;99.90
12115;DHT22;6121;49.810;6.418;2023-05-02T03:13:45;7.50;99.90
12115;DHT22;6121;49.810;6.418;2023-05-02T03:16:39;7.50;99.90
12115;DHT22;6121;49.810;6.418;2023-05-02T03:19:09;7.50;99.90
12115;DHT22;6121;49.810;6.418;2023-05-02T03:21:36;7.40;99.90
12115;DHT22;6121;49.810;6.418;2023-05-02T03:24:09;7.50;99.90
12115;DHT22;6121;49.810;6.418;2023-05-02T03:26:35;7.60;99.90
12115;DHT22;6121;49.810;6.418;2023-05-02T03:29:01;7.60;99.90
12115;DHT22;6121;49.810;6.418;2023-05-02T03:31:33;7.40;99.90
12115;DHT22;6121;49.810;6.418;2023-05-02T03:33:59;7.40;99.90
12115;DHT22;6121;49.810;6.418;2023-05-02T03:36:25;7.40;99.90
12115;DHT22;6121;49.810;6.418;2023-05-02T03:38:53;7.40;99.90
12115;DHT22;6121;49.810;6.418;2023-05-02T03:41:19;7.30;99.90
12115;DHT22;6121;49.810;6.418;2023-05-02T03:43:51;7.30;99.90
12115;DHT22;6121;49.810;6.418;2023-05-02T03:46:20;7.40;99.90
12115;DHT22;6121;49.810;6.418;2023-05-02T03:48:46;7.40;99.90
12115;DHT22;6121;49.810;6.418;2023-05-02T03:51:12;7.60;99.90
12115;DHT22;6121;49.810;6.418;2023-05-02T03:53:42;7.50;99.90
12115;DHT22;6121;49.810;6.418;2023-05-02T03:56:08;7.50;99.90
12115;DHT22;6121;49.810;6.418;2023-05-02T03:58:44;7.60;99.90
12115;DHT22;6121;49.810;6.418;2023-05-02T04:01:17;7.50;99.90
12115;DHT22;6121;49.810;6.418;2023-05-02T04:03:46;7.50;99.90
12115;DHT22;6121;49.810;6.418;2023-05-02T04:06:14;7.60;99.90
12115;DHT22;6121;49.810;6.418;2023-05-02T04:08:42;7.60;99.90
12115;DHT22;6121;49.810;6.418;2023-05-02T04:11:08;7.80;99.90
12115;DHT22;6121;49.810;6.418;2023-05-02T04:13:34;7.60;99.90
12115;DHT22;6121;49.810;6.418;2023-05-02T04:16:00;7.50;99.90
12115;DHT22;6121;49.810;6.418;2023-05-02T04:18:30;7.50;99.90
12115;DHT22;6121;49.810;6.418;2023-05-02T04:20:57;7.40;99.90
12115;DHT22;6121;49.810;6.418;2023-05-02T04:23:23;7.60;99.90
12115;DHT22;6121;49.810;6.418;2023-05-02T04:25:54;7.70;99.90
12115;DHT22;6121;49.810;6.418;2023-05-02T04:28:25;7.80;99.90
12115;DHT22;6121;49.810;6.418;2023-05-02T04:30:52;7.80;99.90
12115;DHT22;6121;49.810;6.418;2023-05-02T04:33:21;7.80;99.90
12115;DHT22;6121;49.810;6.418;2023-05-02T04:35:49;7.60;99.90
12115;DHT22;6121;49.810;6.418;2023-05-02T04:38:16;7.70;99.90
12115;DHT22;6121;49.810;6.418;2023-05-02T04:40:43;7.50;99.90
12115;DHT22;6121;49.810;6.418;2023-05-02T04:43:10;7.60;99.90
12115;DHT22;6121;49.810;6.418;2023-05-02T04:45:45;7.60;99.90
12115;DHT22;6121;49.810;6.418;2023-05-02T04:48:18;7.70;99.90
12115;DHT22;6121;49.810;6.418;2023-05-02T04:50:45;7.70;99.90
12115;DHT22;6121;49.810;6.418;2023-05-02T04:53:11;7.70;99.90
12115;DHT22;6121;49.810;6.418;2023-05-02T04:55:37;7.80;99.90
12115;DHT22;6121;49.810;6.418;2023-05-02T04:58:04;7.90;99.90
12115;DHT22;6121;49.810;6.418;2023-05-02T05:00:32;8.00;99.90
12115;DHT22;6121;49.810;6.418;2023-05-02T05:03:00;8.00;99.90
12115;DHT22;6121;49.810;6.418;2023-05-02T05:05:26;8.00;99.90
12115;DHT22;6121;49.810;6.418;2023-05-02T05:07:52;7.90;99.90
12115;DHT22;6121;49.810;6.418;2023-05-02T05:10:19;8.00;99.90
12115;DHT22;6121;49.810;6.418;2023-05-02T05:12:45;8.00;99.90
12115;DHT22;6121;49.810;6.418;2023-05-02T05:15:12;8.00;99.90
12115;DHT22;6121;49.810;6.418;2023-05-02T05:17:42;8.10;99.90
12115;DHT22;6121;49.810;6.418;2023-05-02T05:20:08;8.20;99.90
12115;DHT22;6121;49.810;6.418;2023-05-02T05:22:39;8.20;99.90
12115;DHT22;6121;49.810;6.418;2023-05-02T05:25:07;8.20;99.90
12115;DHT22;6121;49.810;6.418;2023-05-02T05:27:34;8.20;99.90
12115;DHT22;6121;49.810;6.418;2023-05-02T05:30:00;8.30;99.90
12115;DHT22;6121;49.810;6.418;2023-05-02T05:32:28;8.30;99.90
12115;DHT22;6121;49.810;6.418;2023-05-02T05:34:55;8.40;99.90
12115;DHT22;6121;49.810;6.418;2023-05-02T05:37:24;8.40;99.90
12115;DHT22;6121;49.810;6.418;2023-05-02T05:39:51;8.40;99.90
12115;DHT22;6121;49.810;6.418;2023-05-02T05:42:18;8.40;99.90
12115;DHT22;6121;49.810;6.418;2023-05-02T05:44:47;8.40;99.90
12115;DHT22;6121;49.810;6.418;2023-05-02T05:47:20;8.60;99.90
12115;DHT22;6121;49.810;6.418;2023-05-02T05:49:54;8.80;99.90
12115;DHT22;6121;49.810;6.418;2023-05-02T05:52:23;8.80;99.90
12115;DHT22;6121;49.810;6.418;2023-05-02T05:54:54;8.80;99.90
12115;DHT22;6121;49.810;6.418;2023-05-02T05:57:24;8.80;99.90
12115;DHT22;6121;49.810;6.418;2023-05-02T05:59:50;8.90;99.90
12115;DHT22;6121;49.810;6.418;2023-05-02T06:02:17;8.90;99.90
12115;DHT22;6121;49.810;6.418;2023-05-02T06:04:44;8.90;99.90
12115;DHT22;6121;49.810;6.418;2023-05-02T06:07:13;8.80;99.90
12115;DHT22;6121;49.810;6.418;2023-05-02T06:09:38;8.90;99.90
12115;DHT22;6121;49.810;6.418;2023-05-02T06:12:05;8.80;99.90
12115;DHT22;6121;49.810;6.418;2023-05-02T06:14:32;8.90;99.90
12115;DHT22;6121;49.810;6.418;2023-05-02T06:16:58;8.90;99.90
12115;DHT22;6121;49.810;6.418;2023-05-02T06:19:26;9.00;99.90
12115;DHT22;6121;49.810;6.418;2023-05-02T06:21:52;9.10;99.90
12115;DHT22;6121;49.810;6.418;2023-05-02T06:24:18;9.20;99.90
12115;DHT22;6121;49.810;6.418;2023-05-02T06:26:43;9.30;99.90
12115;DHT22;6121;49.810;6.418;2023-05-02T06:29:10;9.20;99.90
12115;DHT22;6121;49.810;6.418;2023-05-02T06:31:36;9.10;99.90
12115;DHT22;6121;49.810;6.418;2023-05-02T06:34:02;9.20;99.90
12115;DHT22;6121;49.810;6.418;2023-05-02T06:36:28;9.20;99.90
12115;DHT22;6121;49.810;6.418;2023-05-02T06:38:54;9.30;99.90
12115;DHT22;6121;49.810;6.418;2023-05-02T06:41:20;9.50;99.90
12115;DHT22;6121;49.810;6.418;2023-05-02T06:43:46;9.50;99.90
12115;DHT22;6121;49.810;6.418;2023-05-02T06:46:12;9.60;99.90
12115;DHT22;6121;49.810;6.418;2023-05-02T06:48:38;9.70;99.90
12115;DHT22;6121;49.810;6.418;2023-05-02T06:51:03;9.70;99.90
12115;DHT22;6121;49.810;6.418;2023-05-02T06:53:30;9.80;99.90
12115;DHT22;6121;49.810;6.418;2023-05-02T06:55:56;9.80;99.90
12115;DHT22;6121;49.810;6.418;2023-05-02T06:58:23;9.90;99.90
12115;DHT22;6121;49.810;6.418;2023-05-02T07:00:48;10.10;99.90
12115;DHT22;6121;49.810;6.418;2023-05-02T07:03:15;10.30;99.90
12115;DHT22;6121;49.810;6.418;2023-05-02T07:05:40;10.30;99.90
12115;DHT22;6121;49.810;6.418;2023-05-02T07:08:06;10.50;99.90
12115;DHT22;6121;49.810;6.418;2023-05-02T07:10:34;10.40;99.90
12115;DHT22;6121;49.810;6.418;2023-05-02T07:13:00;10.40;99.90
12115;DHT22;6121;49.810;6.418;2023-05-02T07:15:26;10.60;99.90
12115;DHT22;6121;49.810;6.418;2023-05-02T07:17:52;10.70;99.90
12115;DHT22;6121;49.810;6.418;2023-05-02T07:20:18;10.70;99.90
12115;DHT22;6121;49.810;6.418;2023-05-02T07:22:44;10.70;99.90
12115;DHT22;6121;49.810;6.418;2023-05-02T07:25:10;10.90;99.90
12115;DHT22;6121;49.810;6.418;2023-05-02T07:27:36;11.10;99.90
12115;DHT22;6121;49.810;6.418;2023-05-02T07:30:02;11.10;99.90
12115;DHT22;6121;49.810;6.418;2023-05-02T07:32:29;11.40;99.90
12115;DHT22;6121;49.810;6.418;2023-05-02T07:34:55;11.70;99.90
12115;DHT22;6121;49.810;6.418;2023-05-02T07:37:22;11.90;99.90
12115;DHT22;6121;49.810;6.418;2023-05-02T07:39:48;12.30;99.90
12115;DHT22;6121;49.810;6.418;2023-05-02T07:42:14;12.40;99.90
12115;DHT22;6121;49.810;6.418;2023-05-02T07:44:39;12.60;99.90
12115;DHT22;6121;49.810;6.418;2023-05-02T07:47:07;12.90;99.90
12115;DHT22;6121;49.810;6.418;2023-05-02T07:49:33;13.20;99.90
12115;DHT22;6121;49.810;6.418;2023-05-02T07:51:59;13.50;99.90
12115;DHT22;6121;49.810;6.418;2023-05-02T07:54:25;13.50;99.90
12115;DHT22;6121;49.810;6.418;2023-05-02T07:56:52;13.50;99.90
12115;DHT22;6121;49.810;6.418;2023-05-02T07:59:18;13.90;99.90
12115;DHT22;6121;49.810;6.418;2023-05-02T08:01:44;14.20;99.90
12115;DHT22;6121;49.810;6.418;2023-05-02T08:04:10;14.30;99.90
12115;DHT22;6121;49.810;6.418;2023-05-02T08:06:37;14.50;99.90
12115;DHT22;6121;49.810;6.418;2023-05-02T08:09:03;14.50;99.90
12115;DHT22;6121;49.810;6.418;2023-05-02T08:11:29;14.60;99.90
12115;DHT22;6121;49.810;6.418;2023-05-02T08:13:54;14.70;99.90
12115;DHT22;6121;49.810;6.418;2023-05-02T08:16:20;15.10;99.90
12115;DHT22;6121;49.810;6.418;2023-05-02T08:18:46;15.70;99.90
12115;DHT22;6121;49.810;6.418;2023-05-02T08:21:12;16.00;99.90
12115;DHT22;6121;49.810;6.418;2023-05-02T08:23:40;16.10;99.90
12115;DHT22;6121;49.810;6.418;2023-05-02T08:26:06;16.40;99.90
12115;DHT22;6121;49.810;6.418;2023-05-02T08:28:35;16.60;99.90
12115;DHT22;6121;49.810;6.418;2023-05-02T08:31:00;16.80;99.90
12115;DHT22;6121;49.810;6.418;2023-05-02T08:33:26;16.60;99.90
12115;DHT22;6121;49.810;6.418;2023-05-02T08:35:52;16.90;99.90
12115;DHT22;6121;49.810;6.418;2023-05-02T08:38:18;17.00;99.90
12115;DHT22;6121;49.810;6.418;2023-05-02T08:40:43;17.00;99.90
12115;DHT22;6121;49.810;6.418;2023-05-02T08:43:10;17.40;99.90
12115;DHT22;6121;49.810;6.418;2023-05-02T08:45:42;17.70;99.90
12115;DHT22;6121;49.810;6.418;2023-05-02T08:48:10;17.90;99.90
12115;DHT22;6121;49.810;6.418;2023-05-02T08:50:41;18.30;99.90
12115;DHT22;6121;49.810;6.418;2023-05-02T08:53:10;18.60;99.90
12115;DHT22;6121;49.810;6.418;2023-05-02T08:55:39;18.60;99.90
12115;DHT22;6121;49.810;6.418;2023-05-02T08:58:06;18.70;99.90
12115;DHT22;6121;49.810;6.418;2023-05-02T09:00:37;18.70;99.90
12115;DHT22;6121;49.810;6.418;2023-05-02T09:05:58;18.30;99.90
12115;DHT22;6121;49.810;6.418;2023-05-02T09:08:29;18.30;99.90
12115;DHT22;6121;49.810;6.418;2023-05-02T09:10:55;18.30;99.90
12115;DHT22;6121;49.810;6.418;2023-05-02T09:13:40;18.40;99.90
12115;DHT22;6121;49.810;6.418;2023-05-02T09:16:08;18.90;99.90
12115;DHT22;6121;49.810;6.418;2023-05-02T09:18:46;18.90;99.30
12115;DHT22;6121;49.810;6.418;2023-05-02T09:21:14;18.80;99.50
12115;DHT22;6121;49.810;6.418;2023-05-02T09:23:43;18.70;99.10
12115;DHT22;6121;49.810;6.418;2023-05-02T09:29:06;18.50;99.10
12115;DHT22;6121;49.810;6.418;2023-05-02T09:31:34;18.30;99.30
12115;DHT22;6121;49.810;6.418;2023-05-02T09:34:12;18.00;99.40
12115;DHT22;6121;49.810;6.418;2023-05-02T09:36:40;17.60;99.90
12115;DHT22;6121;49.810;6.418;2023-05-02T09:39:11;17.80;99.90
12115;DHT22;6121;49.810;6.418;2023-05-02T09:41:42;18.20;99.80
12115;DHT22;6121;49.810;6.418;2023-05-02T09:44:13;18.50;99.10
12115;DHT22;6121;49.810;6.418;2023-05-02T09:46:41;18.50;98.40
12115;DHT22;6121;49.810;6.418;2023-05-02T09:49:07;18.50;98.00
12115;DHT22;6121;49.810;6.418;2023-05-02T09:51:34;18.90;97.50
12115;DHT22;6121;49.810;6.418;2023-05-02T09:54:01;19.00;97.40
12115;DHT22;6121;49.810;6.418;2023-05-02T09:56:27;18.70;97.80
12115;DHT22;6121;49.810;6.418;2023-05-02T09:59:15;18.90;97.90
12115;DHT22;6121;49.810;6.418;2023-05-02T10:01:42;19.40;97.10
12115;DHT22;6121;49.810;6.418;2023-05-02T10:04:12;19.30;96.30
12115;DHT22;6121;49.810;6.418;2023-05-02T10:06:43;19.20;96.60
12115;DHT22;6121;49.810;6.418;2023-05-02T10:09:09;19.10;96.60
12115;DHT22;6121;49.810;6.418;2023-05-02T10:11:44;19.20;96.50
12115;DHT22;6121;49.810;6.418;2023-05-02T10:14:11;19.20;96.40
12115;DHT22;6121;49.810;6.418;2023-05-02T10:16:51;19.20;96.40
12115;DHT22;6121;49.810;6.418;2023-05-02T10:19:23;19.10;96.60
12115;DHT22;6121;49.810;6.418;2023-05-02T10:21:52;18.50;96.20
12115;DHT22;6121;49.810;6.418;2023-05-02T10:24:20;18.50;97.10
12115;DHT22;6121;49.810;6.418;2023-05-02T10:26:46;18.40;97.30
12115;DHT22;6121;49.810;6.418;2023-05-02T10:29:13;18.40;97.40
12115;DHT22;6121;49.810;6.418;2023-05-02T10:31:39;18.40;97.50
12115;DHT22;6121;49.810;6.418;2023-05-02T10:34:10;18.30;97.80
12115;DHT22;6121;49.810;6.418;2023-05-02T10:36:36;18.10;97.80
12115;DHT22;6121;49.810;6.418;2023-05-02T10:39:02;18.10;97.70
12115;DHT22;6121;49.810;6.418;2023-05-02T10:41:31;17.90;97.50
12115;DHT22;6121;49.810;6.418;2023-05-02T10:43:58;17.90;97.70
12115;DHT22;6121;49.810;6.418;2023-05-02T10:46:32;18.10;97.60
12115;DHT22;6121;49.810;6.418;2023-05-02T10:49:04;18.90;97.40
12115;DHT22;6121;49.810;6.418;2023-05-02T10:51:31;19.40;96.80
12115;DHT22;6121;49.810;6.418;2023-05-02T10:54:23;19.80;96.70
12115;DHT22;6121;49.810;6.418;2023-05-02T10:59:30;20.30;94.60
12115;DHT22;6121;49.810;6.418;2023-05-02T11:01:57;20.30;94.70
12115;DHT22;6121;49.810;6.418;2023-05-02T11:04:23;20.60;94.90
12115;DHT22;6121;49.810;6.418;2023-05-02T11:11:50;20.00;93.40
12115;DHT22;6121;49.810;6.418;2023-05-02T11:19:25;19.40;93.70
12115;DHT22;6121;49.810;6.418;2023-05-02T11:21:51;19.30;93.60
12115;DHT22;6121;49.810;6.418;2023-05-02T11:24:41;19.30;94.50
12115;DHT22;6121;49.810;6.418;2023-05-02T11:35:17;19.80;94.50
12115;DHT22;6121;49.810;6.418;2023-05-02T11:38:03;19.40;94.80
12115;DHT22;6121;49.810;6.418;2023-05-02T11:40:30;19.20;95.10
12115;DHT22;6121;49.810;6.418;2023-05-02T11:42:58;18.90;95.30
12115;DHT22;6121;49.810;6.418;2023-05-02T11:45:34;18.30;95.90
12115;DHT22;6121;49.810;6.418;2023-05-02T11:48:11;18.70;96.40
12115;DHT22;6121;49.810;6.418;2023-05-02T11:50:48;19.30;96.30
12115;DHT22;6121;49.810;6.418;2023-05-02T11:53:23;19.30;95.90
12115;DHT22;6121;49.810;6.418;2023-05-02T11:55:56;18.80;98.30
12115;DHT22;6121;49.810;6.418;2023-05-02T11:58:26;18.40;99.40
12115;DHT22;6121;49.810;6.418;2023-05-02T12:00:58;18.00;99.90
12115;DHT22;6121;49.810;6.418;2023-05-02T12:03:31;17.60;99.90
12115;DHT22;6121;49.810;6.418;2023-05-02T12:06:08;17.50;99.90
12115;DHT22;6121;49.810;6.418;2023-05-02T12:08:35;17.50;99.90
12115;DHT22;6121;49.810;6.418;2023-05-02T12:11:01;17.50;99.90
12115;DHT22;6121;49.810;6.418;2023-05-02T12:13:28;17.30;99.90
12115;DHT22;6121;49.810;6.418;2023-05-02T12:15:55;17.60;99.90
12115;DHT22;6121;49.810;6.418;2023-05-02T12:18:23;18.00;99.90
12115;DHT22;6121;49.810;6.418;2023-05-02T12:20:54;18.50;99.90
12115;DHT22;6121;49.810;6.418;2023-05-02T12:23:22;18.50;99.90
12115;DHT22;6121;49.810;6.418;2023-05-02T12:25:49;18.30;99.90
12115;DHT22;6121;49.810;6.418;2023-05-02T12:28:17;18.50;99.90
12115;DHT22;6121;49.810;6.418;2023-05-02T12:30:47;18.60;99.60
12115;DHT22;6121;49.810;6.418;2023-05-02T12:33:13;18.80;99.20
12115;DHT22;6121;49.810;6.418;2023-05-02T12:35:40;19.00;98.80
12115;DHT22;6121;49.810;6.418;2023-05-02T12:38:15;19.20;97.50
12115;DHT22;6121;49.810;6.418;2023-05-02T12:40:50;19.10;96.30
12115;DHT22;6121;49.810;6.418;2023-05-02T12:43:17;19.10;96.10
12115;DHT22;6121;49.810;6.418;2023-05-02T12:45:43;19.20;97.60
12115;DHT22;6121;49.810;6.418;2023-05-02T12:48:26;19.10;98.00
12115;DHT22;6121;49.810;6.418;2023-05-02T12:50:53;19.10;96.40
12115;DHT22;6121;49.810;6.418;2023-05-02T12:53:42;19.00;92.90
12115;DHT22;6121;49.810;6.418;2023-05-02T12:56:11;18.70;92.10
12115;DHT22;6121;49.810;6.418;2023-05-02T12:58:40;18.60;92.00
12115;DHT22;6121;49.810;6.418;2023-05-02T13:01:08;18.60;92.30
12115;DHT22;6121;49.810;6.418;2023-05-02T13:03:34;18.70;92.30
12115;DHT22;6121;49.810;6.418;2023-05-02T13:06:01;19.10;92.10
12115;DHT22;6121;49.810;6.418;2023-05-02T13:08:27;19.40;92.00
12115;DHT22;6121;49.810;6.418;2023-05-02T13:10:52;19.70;92.00
12115;DHT22;6121;49.810;6.418;2023-05-02T13:13:18;19.90;91.90
12115;DHT22;6121;49.810;6.418;2023-05-02T13:15:44;19.80;91.40
12115;DHT22;6121;49.810;6.418;2023-05-02T13:18:10;20.00;91.10
12115;DHT22;6121;49.810;6.418;2023-05-02T13:20:37;20.00;90.80
12115;DHT22;6121;49.810;6.418;2023-05-02T13:23:03;19.80;91.00
12115;DHT22;6121;49.810;6.418;2023-05-02T13:25:30;19.60;90.70
12115;DHT22;6121;49.810;6.418;2023-05-02T13:27:57;19.60;90.50
12115;DHT22;6121;49.810;6.418;2023-05-02T13:30:23;19.40;90.30
12115;DHT22;6121;49.810;6.418;2023-05-02T13:32:49;19.10;90.30
12115;DHT22;6121;49.810;6.418;2023-05-02T13:35:14;19.20;90.10
12115;DHT22;6121;49.810;6.418;2023-05-02T13:37:41;19.10;90.10
12115;DHT22;6121;49.810;6.418;2023-05-02T13:40:08;19.20;89.70
12115;DHT22;6121;49.810;6.418;2023-05-02T13:42:34;19.00;89.80
12115;DHT22;6121;49.810;6.418;2023-05-02T13:45:00;19.00;88.60
12115;DHT22;6121;49.810;6.418;2023-05-02T13:47:30;18.80;88.60
12115;DHT22;6121;49.810;6.418;2023-05-02T13:49:56;18.70;88.90
12115;DHT22;6121;49.810;6.418;2023-05-02T13:52:22;18.60;88.60
12115;DHT22;6121;49.810;6.418;2023-05-02T13:54:48;18.80;88.90
12115;DHT22;6121;49.810;6.418;2023-05-02T13:57:13;18.90;88.70
12115;DHT22;6121;49.810;6.418;2023-05-02T13:59:39;19.00;87.80
12115;DHT22;6121;49.810;6.418;2023-05-02T14:02:06;19.00;87.80
12115;DHT22;6121;49.810;6.418;2023-05-02T14:04:31;18.80;87.90
12115;DHT22;6121;49.810;6.418;2023-05-02T14:06:58;18.80;88.40
12115;DHT22;6121;49.810;6.418;2023-05-02T14:09:24;18.80;88.10
12115;DHT22;6121;49.810;6.418;2023-05-02T14:11:50;18.80;88.60
12115;DHT22;6121;49.810;6.418;2023-05-02T14:14:16;18.80;88.70
12115;DHT22;6121;49.810;6.418;2023-05-02T14:16:42;18.80;88.80
12115;DHT22;6121;49.810;6.418;2023-05-02T14:19:08;18.80;88.30
12115;DHT22;6121;49.810;6.418;2023-05-02T14:21:35;18.80;88.60
12115;DHT22;6121;49.810;6.418;2023-05-02T14:24:04;18.80;88.50
12115;DHT22;6121;49.810;6.418;2023-05-02T14:26:31;18.90;89.40
12115;DHT22;6121;49.810;6.418;2023-05-02T14:28:58;19.10;89.10
12115;DHT22;6121;49.810;6.418;2023-05-02T14:31:24;19.30;87.30
12115;DHT22;6121;49.810;6.418;2023-05-02T14:33:51;19.40;86.40
12115;DHT22;6121;49.810;6.418;2023-05-02T14:36:16;19.50;86.90
12115;DHT22;6121;49.810;6.418;2023-05-02T14:38:42;19.60;87.10
12115;DHT22;6121;49.810;6.418;2023-05-02T14:41:08;19.30;86.80
12115;DHT22;6121;49.810;6.418;2023-05-02T14:43:35;19.10;87.00
12115;DHT22;6121;49.810;6.418;2023-05-02T14:46:01;19.10;86.40
12115;DHT22;6121;49.810;6.418;2023-05-02T14:48:28;19.20;85.90
12115;DHT22;6121;49.810;6.418;2023-05-02T14:50:54;19.20;85.10
12115;DHT22;6121;49.810;6.418;2023-05-02T14:53:21;19.20;85.90
12115;DHT22;6121;49.810;6.418;2023-05-02T14:55:47;19.30;85.20
12115;DHT22;6121;49.810;6.418;2023-05-02T14:58:13;19.20;83.30
12115;DHT22;6121;49.810;6.418;2023-05-02T15:00:45;19.20;83.50
12115;DHT22;6121;49.810;6.418;2023-05-02T15:03:11;19.20;84.10
12115;DHT22;6121;49.810;6.418;2023-05-02T15:05:37;19.10;84.50
12115;DHT22;6121;49.810;6.418;2023-05-02T15:08:03;19.10;83.10
12115;DHT22;6121;49.810;6.418;2023-05-02T15:10:29;19.10;84.10
12115;DHT22;6121;49.810;6.418;2023-05-02T15:12:55;19.00;84.20
12115;DHT22;6121;49.810;6.418;2023-05-02T15:15:21;19.00;84.50
12115;DHT22;6121;49.810;6.418;2023-05-02T15:17:51;19.00;84.40
12115;DHT22;6121;49.810;6.418;2023-05-02T15:20:17;19.00;84.80
12115;DHT22;6121;49.810;6.418;2023-05-02T15:22:44;19.10;85.90
12115;DHT22;6121;49.810;6.418;2023-05-02T15:25:10;19.10;86.50
12115;DHT22;6121;49.810;6.418;2023-05-02T15:27:36;19.20;86.80
12115;DHT22;6121;49.810;6.418;2023-05-02T15:30:03;19.40;85.90
12115;DHT22;6121;49.810;6.418;2023-05-02T15:32:31;19.50;86.60
12115;DHT22;6121;49.810;6.418;2023-05-02T15:34:57;19.60;85.70
12115;DHT22;6121;49.810;6.418;2023-05-02T15:37:23;19.60;85.70
12115;DHT22;6121;49.810;6.418;2023-05-02T15:39:49;19.60;87.30
12115;DHT22;6121;49.810;6.418;2023-05-02T15:42:15;19.50;86.00
12115;DHT22;6121;49.810;6.418;2023-05-02T15:44:41;19.40;84.20
12115;DHT22;6121;49.810;6.418;2023-05-02T15:47:07;19.30;83.20
12115;DHT22;6121;49.810;6.418;2023-05-02T15:49:33;19.10;83.20
12115;DHT22;6121;49.810;6.418;2023-05-02T15:51:59;18.90;83.00
12115;DHT22;6121;49.810;6.418;2023-05-02T15:54:25;18.80;83.90
12115;DHT22;6121;49.810;6.418;2023-05-02T15:56:51;18.70;83.70
12115;DHT22;6121;49.810;6.418;2023-05-02T15:59:17;18.50;84.20
12115;DHT22;6121;49.810;6.418;2023-05-02T16:01:44;18.50;84.50
12115;DHT22;6121;49.810;6.418;2023-05-02T16:04:09;18.60;84.60
12115;DHT22;6121;49.810;6.418;2023-05-02T16:06:36;18.60;84.40
12115;DHT22;6121;49.810;6.418;2023-05-02T16:09:03;18.50;84.70
12115;DHT22;6121;49.810;6.418;2023-05-02T16:11:34;18.40;84.80
12115;DHT22;6121;49.810;6.418;2023-05-02T16:14:00;18.40;85.60
12115;DHT22;6121;49.810;6.418;2023-05-02T16:16:29;18.40;85.90
12115;DHT22;6121;49.810;6.418;2023-05-02T16:18:54;18.50;85.90
12115;DHT22;6121;49.810;6.418;2023-05-02T16:21:20;18.50;85.80
12115;DHT22;6121;49.810;6.418;2023-05-02T16:23:46;18.50;86.00
12115;DHT22;6121;49.810;6.418;2023-05-02T16:26:12;18.40;86.30
12115;DHT22;6121;49.810;6.418;2023-05-02T16:28:38;18.10;86.50
12115;DHT22;6121;49.810;6.418;2023-05-02T16:31:05;18.30;87.20
12115;DHT22;6121;49.810;6.418;2023-05-02T16:33:32;18.30;87.80
12115;DHT22;6121;49.810;6.418;2023-05-02T16:36:02;18.30;87.20
12115;DHT22;6121;49.810;6.418;2023-05-02T16:38:28;18.30;87.50
12115;DHT22;6121;49.810;6.418;2023-05-02T16:40:54;18.40;87.10